Time;durP1;ratioP1;P1;durP2;ratioP2;P2;SDS_P1;SDS_P2;PMS_P1;PMS_P2;Temp;Humidity;BMP_temperature;BMP_pressure;BME280_temperature;BME280_humidity;BME280_pressure;Samples;Min_cycle;Max_cycle;Signal;HPM_P1;HPM_P2
2021/09/25 00:01:19;;;;;;;3.63;3.33;;;18.50;99.90;;;;;;5072039;28;20233;-80
2021/09/25 00:03:46;;;;;;;6.00;3.78;;;18.50;99.90;;;;;;5073980;28;20252;-81
2021/09/25 00:06:13;;;;;;;3.67;3.38;;;18.50;99.90;;;;;;5073322;28;20217;-79
2021/09/25 00:08:40;;;;;;;4.55;3.45;;;18.60;99.90;;;;;;5073595;28;20723;-80
2021/09/25 00:11:09;;;;;;;4.93;3.85;;;18.70;99.90;;;;;;5073781;28;20720;-86
2021/09/25 00:13:36;;;;;;;5.07;3.45;;;18.60;99.90;;;;;;5073711;28;20214;-81
2021/09/25 00:16:04;;;;;;;4.03;3.47;;;18.60;99.90;;;;;;5074174;28;20210;-91
2021/09/25 00:18:35;;;;;;;3.90;3.60;;;18.60;99.90;;;;;;5074264;28;20210;-83
2021/09/25 00:21:03;;;;;;;4.55;4.05;;;18.60;99.90;;;;;;5073979;28;20284;-90
2021/09/25 00:23:30;;;;;;;4.53;4.13;;;18.50;99.90;;;;;;5075517;28;20225;-94
2021/09/25 00:25:57;;;;;;;4.45;3.60;;;18.50;99.90;;;;;;5076606;28;20202;-89
2021/09/25 00:28:26;;;;;;;3.97;3.60;;;18.50;99.90;;;;;;5075394;28;20206;-91
2021/09/25 00:30:53;;;;;;;4.93;4.45;;;18.50;99.90;;;;;;5076469;28;20790;-93
2021/09/25 00:33:20;;;;;;;6.15;3.90;;;18.50;99.90;;;;;;5074817;28;20279;-91
2021/09/25 00:35:47;;;;;;;5.05;3.65;;;18.50;99.90;;;;;;5074316;28;20202;-89
2021/09/25 00:38:14;;;;;;;3.88;3.58;;;18.50;99.90;;;;;;5074717;28;20222;-93
2021/09/25 00:40:41;;;;;;;5.18;4.30;;;18.40;99.90;;;;;;5074571;28;20280;-89
2021/09/25 00:43:08;;;;;;;4.47;4.07;;;18.40;99.90;;;;;;5074610;28;20210;-88
2021/09/25 00:45:37;;;;;;;4.82;4.32;;;18.40;99.90;;;;;;5075102;28;20755;-89
2021/09/25 00:48:05;;;;;;;7.10;4.63;;;18.30;99.90;;;;;;5075809;28;20622;-90
2021/09/25 00:50:32;;;;;;;7.63;4.00;;;18.30;99.90;;;;;;5072995;28;20564;-77
2021/09/25 00:52:59;;;;;;;5.35;4.15;;;18.40;99.90;;;;;;5073403;28;20252;-79
2021/09/25 00:55:26;;;;;;;5.30;4.10;;;18.30;99.90;;;;;;5073055;28;20255;-80
2021/09/25 00:57:58;;;;;;;5.15;4.50;;;18.30;99.90;;;;;;5073549;28;20212;-81
2021/09/25 01:00:25;;;;;;;6.78;4.55;;;18.30;99.90;;;;;;5072836;28;20252;-82
2021/09/25 01:02:53;;;;;;;4.97;4.43;;;18.30;99.90;;;;;;5072474;28;20264;-81
2021/09/25 01:05:22;;;;;;;4.60;4.18;;;18.30;99.90;;;;;;5071822;28;20206;-80
2021/09/25 01:07:50;;;;;;;7.93;4.63;;;18.30;99.90;;;;;;5072818;28;20293;-77
2021/09/25 01:10:17;;;;;;;6.05;5.18;;;18.30;99.90;;;;;;5072305;28;20206;-78
2021/09/25 01:12:45;;;;;;;6.03;4.25;;;18.20;99.90;;;;;;5072952;28;20202;-78
2021/09/25 01:15:14;;;;;;;5.50;4.75;;;18.30;99.90;;;;;;5072460;28;20206;-79
2021/09/25 01:17:41;;;;;;;5.53;4.68;;;18.30;99.90;;;;;;5072901;28;20254;-83
2021/09/25 01:20:12;;;;;;;7.88;5.55;;;18.20;99.90;;;;;;5072481;28;20628;-86
2021/09/25 01:22:41;;;;;;;5.63;5.13;;;18.30;99.90;;;;;;5073346;28;20337;-84
2021/09/25 01:25:11;;;;;;;6.00;5.25;;;18.20;99.90;;;;;;5072166;28;20259;-83
2021/09/25 01:27:39;;;;;;;5.38;4.88;;;18.30;99.90;;;;;;5073067;28;20240;-83
2021/09/25 01:30:09;;;;;;;8.00;5.03;;;18.20;99.90;;;;;;5072178;28;20206;-84
2021/09/25 01:32:36;;;;;;;5.47;5.00;;;18.30;99.90;;;;;;5073047;28;20267;-83
2021/09/25 01:35:04;;;;;;;5.93;5.13;;;18.20;99.90;;;;;;5072177;28;20206;-84
2021/09/25 01:37:31;;;;;;;6.40;5.80;;;18.30;99.90;;;;;;5072653;28;20259;-82
2021/09/25 01:39:59;;;;;;;6.18;5.55;;;18.20;99.90;;;;;;5072701;28;20256;-86
2021/09/25 01:42:26;;;;;;;6.75;4.53;;;18.50;99.90;;;;;;5072317;28;20226;-84
2021/09/25 01:44:54;;;;;;;7.60;5.25;;;16.80;1.00;;;;;;5072456;28;20206;-81
2021/09/25 01:47:21;;;;;;;6.85;4.97;;;18.30;99.90;;;;;;5071631;28;20251;-76
2021/09/25 01:49:49;;;;;;;6.55;5.50;;;18.30;99.90;;;;;;5072065;28;20206;-78
2021/09/25 01:52:17;;;;;;;6.07;5.57;;;18.30;99.90;;;;;;5071458;28;20232;-79
2021/09/25 01:54:44;;;;;;;5.85;5.43;;;18.40;99.90;;;;;;5071944;28;20202;-79
2021/09/25 01:57:12;;;;;;;8.13;6.13;;;18.30;99.90;;;;;;5071323;28;20267;-79
2021/09/25 01:59:39;;;;;;;5.53;5.03;;;18.30;99.90;;;;;;5072116;28;20202;-79
2021/09/25 02:02:07;;;;;;;6.22;4.60;;;18.30;99.90;;;;;;5071155;28;20642;-78
2021/09/25 02:04:35;;;;;;;6.07;5.55;;;18.20;99.90;;;;;;5071877;28;20207;-78
2021/09/25 02:07:02;;;;;;;5.88;5.38;;;18.30;99.90;;;;;;5071590;28;20263;-77
2021/09/25 02:09:29;;;;;;;7.90;4.95;;;18.20;99.90;;;;;;5071357;28;20626;-79
2021/09/25 02:11:56;;;;;;;7.63;6.05;;;18.10;99.90;;;;;;5071639;28;20612;-77
2021/09/25 02:14:24;;;;;;;5.25;4.25;;;18.10;99.90;;;;;;5071174;28;20275;-80
2021/09/25 02:16:51;;;;;;;4.97;4.47;;;18.20;99.90;;;;;;5071222;28;20275;-79
2021/09/25 02:19:18;;;;;;;5.28;4.78;;;18.20;99.90;;;;;;5071129;28;20214;-80
2021/09/25 02:21:45;;;;;;;5.47;4.30;;;18.30;99.90;;;;;;5071219;28;20230;-76
2021/09/25 02:24:13;;;;;;;6.45;5.05;;;18.30;99.90;;;;;;5071517;28;20260;-82
2021/09/25 02:26:40;;;;;;;5.75;5.07;;;18.20;99.90;;;;;;5069839;28;20681;-84
2021/09/25 02:29:07;;;;;;;6.68;4.80;;;18.10;99.90;;;;;;5071046;28;20236;-82
2021/09/25 02:31:36;;;;;;;5.95;5.43;;;18.20;99.90;;;;;;5070940;28;20283;-82
2021/09/25 02:34:03;;;;;;;5.28;4.78;;;18.30;99.90;;;;;;5071163;28;20210;-80
2021/09/25 02:36:30;;;;;;;6.60;4.82;;;18.30;99.90;;;;;;5071062;28;20231;-80
2021/09/25 02:38:58;;;;;;;9.18;4.80;;;18.30;99.90;;;;;;5071538;28;20244;-83
2021/09/25 02:41:25;;;;;;;5.80;4.72;;;18.30;99.90;;;;;;5070839;28;20622;-82
2021/09/25 02:43:52;;;;;;;5.55;5.05;;;18.30;99.90;;;;;;5071237;28;20279;-84
2021/09/25 02:46:19;;;;;;;4.60;4.20;;;18.40;99.90;;;;;;5070796;28;20256;-85
2021/09/25 02:48:47;;;;;;;5.03;4.53;;;18.30;99.90;;;;;;5071643;28;20554;-85
2021/09/25 02:51:17;;;;;;;5.97;4.78;;;18.40;99.90;;;;;;5071395;28;20271;-85
2021/09/25 02:53:44;;;;;;;6.38;3.85;;;18.50;99.90;;;;;;5071795;28;20213;-87
2021/09/25 02:56:12;;;;;;;5.18;4.40;;;18.60;99.90;;;;;;5070886;28;20594;-79
2021/09/25 02:58:40;;;;;;;4.60;4.20;;;18.60;99.90;;;;;;5070836;28;20214;-79
2021/09/25 03:01:07;;;;;;;5.45;3.83;;;18.70;99.90;;;;;;5069944;28;20743;-79
2021/09/25 03:03:34;;;;;;;4.70;4.20;;;18.60;99.90;;;;;;5070917;28;20259;-75
2021/09/25 03:06:02;;;;;;;5.45;4.20;;;18.70;99.90;;;;;;5070986;28;20206;-76
2021/09/25 03:08:29;;;;;;;3.90;3.60;;;18.70;99.90;;;;;;5070823;28;20210;-76
2021/09/25 03:10:56;;;;;;;3.63;3.33;;;18.60;99.90;;;;;;5070504;28;20249;-80
2021/09/25 03:13:23;;;;;;;3.88;3.58;;;18.60;99.90;;;;;;5056518;28;20267;-82
2021/09/25 03:15:50;;;;;;;3.97;3.17;;;18.70;99.90;;;;;;5070629;28;20252;-81
2021/09/25 03:18:17;;;;;;;8.10;4.40;;;18.70;99.90;;;;;;5070198;28;20202;-82
2021/09/25 03:20:44;;;;;;;5.72;3.70;;;18.80;99.90;;;;;;5070674;28;20267;-81
2021/09/25 03:23:12;;;;;;;3.88;3.58;;;18.80;99.90;;;;;;5069932;28;20712;-80
2021/09/25 03:25:39;;;;;;;5.78;3.35;;;18.90;99.90;;;;;;5070663;28;20198;-80
2021/09/25 03:28:08;;;;;;;3.95;3.65;;;18.90;99.90;;;;;;5069626;28;20263;-79
2021/09/25 03:30:35;;;;;;;4.70;3.65;;;18.90;99.90;;;;;;5070270;28;20210;-77
2021/09/25 03:33:02;;;;;;;4.85;4.43;;;18.90;99.90;;;;;;5070640;28;20267;-76
2021/09/25 03:35:29;;;;;;;6.00;4.10;;;19.00;99.90;;;;;;5070756;28;20208;-75
2021/09/25 03:37:56;;;;;;;4.50;3.60;;;19.00;99.90;;;;;;5070673;28;20271;-77
2021/09/25 03:40:24;;;;;;;4.60;3.85;;;19.00;99.90;;;;;;5069727;28;20550;-81
2021/09/25 03:42:51;;;;;;;5.00;4.20;;;19.10;99.90;;;;;;5070537;28;20237;-81
2021/09/25 03:45:19;;;;;;;5.65;4.03;;;19.10;99.90;;;;;;5069402;28;20255;-81
2021/09/25 03:47:47;;;;;;;4.63;3.90;;;19.10;99.90;;;;;;5070544;28;20252;-82
2021/09/25 03:50:14;;;;;;;5.68;5.18;;;19.00;99.90;;;;;;5070001;28;20206;-82
2021/09/25 03:52:41;;;;;;;4.28;3.83;;;18.90;99.90;;;;;;5070338;28;20259;-78
2021/09/25 03:55:09;;;;;;;5.38;3.80;;;19.00;99.90;;;;;;5070139;28;20263;-81
2021/09/25 03:57:37;;;;;;;5.47;4.15;;;18.90;99.90;;;;;;5056516;28;20213;-81
2021/09/25 04:00:05;;;;;;;5.47;3.30;;;18.90;99.90;;;;;;5069745;28;20236;-80
2021/09/25 04:02:32;;;;;;;4.82;3.65;;;18.90;99.90;;;;;;5069816;28;20237;-81
2021/09/25 04:04:59;;;;;;;4.90;4.40;;;18.90;99.90;;;;;;5070655;28;20209;-80
2021/09/25 04:07:26;;;;;;;4.15;3.85;;;18.90;99.90;;;;;;5069953;28;20673;-78
2021/09/25 04:09:53;;;;;;;7.10;4.15;;;18.90;99.90;;;;;;5069930;28;20644;-79
2021/09/25 04:12:21;;;;;;;6.93;4.15;;;19.00;99.90;;;;;;5070016;28;20685;-87
2021/09/25 04:14:49;;;;;;;4.30;3.90;;;19.00;99.90;;;;;;5070369;28;20214;-86
2021/09/25 04:17:16;;;;;;;7.68;4.47;;;19.10;99.90;;;;;;5070309;28;20259;-83
2021/09/25 04:19:43;;;;;;;5.00;4.53;;;19.10;99.90;;;;;;5070706;28;20210;-88
2021/09/25 04:22:10;;;;;;;4.60;3.20;;;19.10;99.90;;;;;;5070244;28;20701;-88
2021/09/25 04:24:37;;;;;;;4.80;3.97;;;19.10;99.90;;;;;;5070499;28;20209;-86
2021/09/25 04:27:04;;;;;;;4.65;4.22;;;19.10;99.90;;;;;;5072849;28;20263;-86
2021/09/25 04:29:31;;;;;;;6.38;4.32;;;19.20;99.90;;;;;;5072936;28;20739;-82
2021/09/25 04:32:00;;;;;;;4.15;3.78;;;19.10;99.90;;;;;;5070180;28;20631;-81
2021/09/25 04:34:28;;;;;;;3.45;3.08;;;;;;;;;;5069936;28;20260;-82
2021/09/25 04:36:55;;;;;;;4.20;3.90;;;19.30;99.90;;;;;;5070060;28;20210;-81
2021/09/25 04:39:24;;;;;;;4.10;3.70;;;19.10;99.90;;;;;;5070967;28;20210;-75
2021/09/25 04:41:51;;;;;;;4.65;4.35;;;19.00;99.90;;;;;;5073822;28;20236;-93
2021/09/25 04:44:18;;;;;;;8.70;4.70;;;19.00;99.90;;;;;;5074264;28;20218;-90
2021/09/25 04:46:46;;;;;;;5.72;4.47;;;18.90;99.90;;;;;;5073434;28;20221;-82
2021/09/25 04:49:15;;;;;;;4.25;3.88;;;18.90;99.90;;;;;;5073065;28;20206;-82
2021/09/25 04:51:42;;;;;;;4.20;3.80;;;18.90;99.90;;;;;;5073143;28;20209;-82
2021/09/25 04:54:10;;;;;;;11.73;5.07;;;18.90;99.90;;;;;;5072779;28;20209;-82
2021/09/25 04:56:37;;;;;;;5.15;4.25;;;18.90;99.90;;;;;;5072802;28;20620;-81
2021/09/25 04:59:04;;;;;;;4.00;3.60;;;18.90;99.90;;;;;;5072832;28;20206;-80
2021/09/25 05:01:31;;;;;;;4.72;4.30;;;18.80;99.90;;;;;;5073011;28;20221;-81
2021/09/25 05:04:01;;;;;;;5.05;3.67;;;18.90;99.90;;;;;;5072689;28;20204;-81
2021/09/25 05:06:30;;;;;;;5.32;4.82;;;18.80;99.90;;;;;;5072603;28;20225;-81
2021/09/25 05:08:57;;;;;;;3.75;3.45;;;18.80;99.90;;;;;;5072842;28;20661;-83
2021/09/25 05:11:25;;;;;;;6.10;4.63;;;18.90;99.90;;;;;;5072088;28;20255;-82
2021/09/25 05:13:52;;;;;;;5.78;3.95;;;18.90;99.90;;;;;;5072959;28;20297;-82
2021/09/25 05:16:19;;;;;;;4.47;4.10;;;19.00;99.90;;;;;;5072068;28;20253;-82
2021/09/25 05:18:46;;;;;;;4.80;3.85;;;19.00;99.90;;;;;;5072780;28;20214;-81
2021/09/25 05:21:13;;;;;;;4.13;3.67;;;18.90;99.90;;;;;;5071796;28;20681;-81
2021/09/25 05:23:41;;;;;;;4.95;4.07;;;18.80;99.90;;;;;;5072563;28;20287;-80
2021/09/25 05:26:09;;;;;;;5.40;4.10;;;18.80;99.90;;;;;;5071682;28;20270;-81
2021/09/25 05:28:36;;;;;;;4.43;3.78;;;18.80;99.90;;;;;;5072334;28;20214;-84
2021/09/25 05:31:03;;;;;;;4.78;4.40;;;18.90;99.90;;;;;;5072087;28;20210;-80
2021/09/25 05:33:30;;;;;;;4.75;3.95;;;18.90;99.90;;;;;;5072306;28;20620;-80
2021/09/25 05:35:57;;;;;;;4.72;4.28;;;18.90;99.90;;;;;;5069049;28;20214;-80
2021/09/25 05:38:24;;;;;;;7.47;4.88;;;18.80;99.90;;;;;;5070836;28;20620;-81
2021/09/25 05:40:53;;;;;;;4.45;4.05;;;18.80;99.90;;;;;;5071365;28;20206;-81
2021/09/25 05:43:20;;;;;;;6.03;3.88;;;18.80;99.90;;;;;;5070647;28;20796;-79
2021/09/25 05:45:47;;;;;;;4.78;4.22;;;18.90;99.90;;;;;;5065256;28;20207;-83
2021/09/25 05:48:14;;;;;;;4.72;4.32;;;19.00;99.90;;;;;;5063201;28;20640;-83
2021/09/25 05:50:41;;;;;;;6.47;4.70;;;19.00;99.90;;;;;;5068562;28;20276;-82
2021/09/25 05:53:08;;;;;;;4.35;3.63;;;19.00;99.90;;;;;;5070283;28;20255;-80
2021/09/25 05:55:35;;;;;;;5.07;4.13;;;18.90;99.90;;;;;;5071249;28;20252;-79
2021/09/25 05:58:04;;;;;;;4.75;4.35;;;18.90;99.90;;;;;;5063512;28;20211;-80
2021/09/25 06:00:31;;;;;;;4.22;3.80;;;19.00;99.90;;;;;;5066307;28;20738;-79
2021/09/25 06:03:00;;;;;;;5.38;4.88;;;19.00;99.90;;;;;;5071255;28;20234;-77
2021/09/25 06:05:28;;;;;;;5.45;4.60;;;18.90;99.90;;;;;;5070979;28;20206;-78
2021/09/25 06:07:54;;;;;;;4.57;4.20;;;18.90;99.90;;;;;;5071310;28;20214;-77
2021/09/25 06:10:22;;;;;;;4.28;3.88;;;18.90;99.90;;;;;;5070468;28;20774;-78
2021/09/25 06:12:48;;;;;;;6.03;5.43;;;19.00;99.90;;;;;;5069675;28;20679;-76
2021/09/25 06:15:17;;;;;;;7.05;4.28;;;19.10;99.90;;;;;;5070009;28;20555;-76
2021/09/25 06:17:44;;;;;;;4.47;4.07;;;19.10;99.90;;;;;;5070695;28;20202;-75
2021/09/25 06:20:12;;;;;;;5.25;3.85;;;19.00;99.90;;;;;;5070447;28;20577;-74
2021/09/25 06:22:40;;;;;;;5.20;4.80;;;19.10;99.90;;;;;;5070775;28;20225;-74
2021/09/25 06:25:09;;;;;;;6.20;4.75;;;19.20;99.90;;;;;;5066171;28;20207;-83
2021/09/25 06:27:37;;;;;;;4.90;4.47;;;19.20;99.90;;;;;;5070114;28;20248;-80
2021/09/25 06:30:05;;;;;;;4.32;3.92;;;19.20;99.90;;;;;;5070875;28;20290;-83
2021/09/25 06:32:34;;;;;;;11.70;4.22;;;19.30;99.90;;;;;;5062602;28;20674;-80
2021/09/25 06:35:01;;;;;;;4.43;4.00;;;19.30;99.90;;;;;;5071116;28;20681;-80
2021/09/25 06:37:29;;;;;;;4.00;3.70;;;19.30;99.90;;;;;;5071214;28;20202;-85
2021/09/25 06:39:56;;;;;;;5.32;4.03;;;19.50;99.90;;;;;;5071294;28;20296;-78
2021/09/25 06:42:24;;;;;;;6.93;4.30;;;19.50;99.90;;;;;;5070059;28;20292;-80
2021/09/25 06:44:51;;;;;;;5.82;4.32;;;19.60;99.90;;;;;;5070660;28;20673;-81
2021/09/25 06:47:18;;;;;;;4.82;4.40;;;19.60;99.90;;;;;;5065316;28;20202;-80
2021/09/25 06:49:46;;;;;;;4.72;4.18;;;19.70;99.90;;;;;;5067323;28;20600;-79
2021/09/25 06:52:13;;;;;;;4.57;3.83;;;19.80;99.90;;;;;;5070010;28;20207;-80
2021/09/25 06:54:40;;;;;;;7.07;4.68;;;19.90;99.90;;;;;;5067727;28;20202;-79
2021/09/25 06:57:08;;;;;;;4.47;4.03;;;20.10;99.90;;;;;;5070028;28;20210;-80
2021/09/25 06:59:35;;;;;;;4.57;3.95;;;20.30;99.90;;;;;;5071555;28;20198;-89
2021/09/25 07:02:02;;;;;;;4.55;4.13;;;20.40;99.90;;;;;;5070873;28;20214;-83
2021/09/25 07:04:29;;;;;;;8.18;4.50;;;20.40;99.90;;;;;;5068281;28;20281;-84
2021/09/25 07:06:57;;;;;;;6.13;4.43;;;20.30;99.90;;;;;;5069015;28;20263;-84
2021/09/25 07:09:24;;;;;;;4.15;3.75;;;20.20;99.90;;;;;;5070623;28;20206;-82
2021/09/25 07:11:51;;;;;;;6.40;4.30;;;20.20;99.90;;;;;;5071191;28;20210;-83
2021/09/25 07:14:18;;;;;;;5.30;3.85;;;20.30;99.90;;;;;;5061755;28;20211;-83
2021/09/25 07:16:45;;;;;;;4.68;4.18;;;20.30;99.90;;;;;;5071035;28;20206;-90
2021/09/25 07:19:13;;;;;;;6.53;4.20;;;20.30;99.90;;;;;;5077532;28;20201;-84
2021/09/25 07:21:40;;;;;;;8.07;4.35;;;20.30;99.90;;;;;;5069604;28;20283;-90
2021/09/25 07:24:09;;;;;;;7.18;4.20;;;20.30;99.90;;;;;;5063295;28;20238;-86
2021/09/25 07:26:37;;;;;;;4.10;3.75;;;20.20;99.90;;;;;;5067945;28;20228;-88
2021/09/25 07:29:04;;;;;;;4.32;4.03;;;20.30;99.90;;;;;;5067552;28;20321;-82
2021/09/25 07:31:32;;;;;;;4.63;3.78;;;20.40;99.90;;;;;;5069434;28;20248;-79
2021/09/25 07:33:58;;;;;;;7.15;4.20;;;20.50;99.90;;;;;;5070276;28;20692;-86
2021/09/25 07:36:27;;;;;;;5.63;3.88;;;20.60;99.90;;;;;;5069650;28;20630;-90
2021/09/25 07:38:54;;;;;;;10.10;4.05;;;20.70;99.90;;;;;;5066526;28;20213;-84
2021/09/25 07:41:23;;;;;;;4.13;3.83;;;20.80;99.90;;;;;;5070231;28;20216;-85
2021/09/25 07:43:50;;;;;;;5.90;4.15;;;20.90;99.90;;;;;;5069356;28;20786;-84
2021/09/25 07:46:17;;;;;;;5.85;4.35;;;21.00;99.90;;;;;;5071500;28;20210;-85
2021/09/25 07:48:44;;;;;;;6.82;4.25;;;21.00;99.90;;;;;;5070747;28;20275;-87
2021/09/25 07:51:11;;;;;;;4.88;4.47;;;21.10;99.90;;;;;;5069985;28;20256;-87
2021/09/25 07:53:38;;;;;;;5.20;3.72;;;21.10;99.90;;;;;;5070229;28;20210;-86
2021/09/25 07:56:06;;;;;;;4.78;3.92;;;21.20;99.90;;;;;;5070218;28;20224;-84
2021/09/25 07:58:34;;;;;;;13.43;4.00;;;21.20;99.90;;;;;;5071292;28;20279;-86
2021/09/25 08:01:02;;;;;;;4.00;3.58;;;21.40;99.90;;;;;;5067701;28;20218;-77
2021/09/25 08:03:29;;;;;;;9.02;3.85;;;21.40;99.90;;;;;;5070667;28;20301;-83
2021/09/25 08:05:56;;;;;;;7.70;3.75;;;21.60;99.90;;;;;;5070525;28;20213;-87
2021/09/25 08:08:23;;;;;;;5.55;4.63;;;21.70;99.90;;;;;;5070611;28;20743;-86
2021/09/25 08:10:50;;;;;;;4.25;3.85;;;21.70;99.90;;;;;;5070314;28;20633;-91
2021/09/25 08:13:17;;;;;;;4.43;3.67;;;21.70;99.90;;;;;;5070928;28;20264;-87
2021/09/25 08:15:46;;;;;;;4.55;4.05;;;21.70;99.90;;;;;;5074674;28;20206;-89
2021/09/25 08:18:13;;;;;;;5.25;4.05;;;21.80;99.90;;;;;;5074284;28;20198;-84
2021/09/25 08:20:40;;;;;;;3.90;3.50;;;21.90;99.90;;;;;;5074551;28;20206;-85
2021/09/25 08:23:07;;;;;;;4.60;3.50;;;21.80;99.90;;;;;;5073791;28;20237;-84
2021/09/25 08:25:34;;;;;;;3.65;3.17;;;22.00;99.90;;;;;;5074371;28;20251;-85
2021/09/25 08:28:01;;;;;;;7.07;4.20;;;22.20;99.90;;;;;;5074152;28;20689;-84
2021/09/25 08:30:28;;;;;;;5.28;3.90;;;22.30;99.90;;;;;;5074266;28;20713;-83
2021/09/25 08:32:58;;;;;;;3.97;2.92;;;22.60;99.90;;;;;;5074082;28;20263;-83
2021/09/25 08:35:25;;;;;;;4.90;4.32;;;22.70;99.90;;;;;;5073384;28;20263;-83
2021/09/25 08:37:52;;;;;;;5.20;3.45;;;22.70;99.90;;;;;;5074322;28;20260;-84
2021/09/25 08:40:21;;;;;;;4.22;3.55;;;22.70;99.90;;;;;;5073298;28;20247;-83
2021/09/25 08:42:49;;;;;;;4.38;3.60;;;22.70;99.90;;;;;;5073834;28;20210;-86
2021/09/25 08:45:16;;;;;;;5.60;4.03;;;22.50;99.90;;;;;;5073202;28;20237;-85
2021/09/25 08:47:43;;;;;;;3.53;3.22;;;22.30;99.90;;;;;;5073803;28;20738;-83
2021/09/25 08:50:14;;;;;;;4.60;3.90;;;22.20;99.90;;;;;;5073233;28;20264;-84
2021/09/25 08:52:42;;;;;;;5.93;4.10;;;22.20;99.90;;;;;;5072583;28;20636;-89
2021/09/25 08:55:12;;;;;;;8.93;4.47;;;22.20;99.90;;;;;;5072967;28;20296;-84
2021/09/25 08:57:40;;;;;;;10.88;5.10;;;22.30;99.90;;;;;;5059861;28;20633;-83
2021/09/25 09:00:38;;;;;;;4.18;3.85;;;22.30;99.90;;;;;;5073533;28;20206;-81
2021/09/25 09:03:33;;;;;;;7.63;4.50;;;22.40;99.90;;;;;;5061357;28;20202;-85
2021/09/25 09:06:15;;;;;;;4.93;4.07;;;22.50;99.90;;;;;;5060881;28;20271;-87
2021/09/25 09:08:43;;;;;;;4.35;4.00;;;22.40;99.90;;;;;;5073724;28;20267;-84
2021/09/25 09:11:11;;;;;;;5.65;5.13;;;22.30;99.90;;;;;;5072777;28;20206;-86
2021/09/25 09:13:40;;;;;;;6.70;4.40;;;22.50;99.90;;;;;;5073474;28;20259;-84
2021/09/25 09:16:09;;;;;;;4.53;4.13;;;22.50;99.90;;;;;;5072887;28;20210;-88
2021/09/25 09:18:39;;;;;;;6.32;4.43;;;22.60;99.90;;;;;;5072772;28;20198;-86
2021/09/25 09:21:09;;;;;;;5.57;4.07;;;22.70;99.90;;;;;;5072688;28;20206;-84
2021/09/25 09:23:40;;;;;;;4.30;3.90;;;22.50;99.90;;;;;;5073831;28;20226;-87
2021/09/25 09:26:08;;;;;;;5.65;4.40;;;22.50;99.90;;;;;;5075119;28;20292;-88
2021/09/25 09:28:38;;;;;;;5.93;4.63;;;22.30;99.90;;;;;;5073279;28;20206;-86
2021/09/25 09:31:07;;;;;;;7.60;4.95;;;22.20;99.90;;;;;;5072783;28;20198;-86
2021/09/25 09:33:37;;;;;;;6.50;4.53;;;22.10;99.90;;;;;;5072938;28;20626;-94
2021/09/25 09:36:22;;;;;;;8.55;5.03;;;22.10;99.90;;;;;;5073035;28;20207;-89
2021/09/25 09:38:54;;;;;;;10.90;4.80;;;22.10;99.90;;;;;;5072667;28;20228;-87
2021/09/25 09:41:25;;;;;;;4.25;3.85;;;22.20;99.90;;;;;;5072344;28;20297;-87
2021/09/25 09:43:53;;;;;;;7.88;4.63;;;22.20;99.90;;;;;;5072785;28;20234;-87
2021/09/25 09:46:31;;;;;;;9.80;4.72;;;22.40;99.90;;;;;;5072373;28;20516;-87
2021/09/25 09:48:59;;;;;;;6.93;5.03;;;22.30;99.90;;;;;;5073317;28;20210;-89
2021/09/25 09:51:45;;;;;;;6.60;4.15;;;22.50;99.90;;;;;;5072333;28;20662;-91
2021/09/25 09:54:19;;;;;;;9.02;4.68;;;22.60;99.90;;;;;;5059832;28;20210;-86
2021/09/25 09:56:48;;;;;;;7.60;4.68;;;22.50;99.90;;;;;;5072721;28;20218;-87
2021/09/25 09:59:15;;;;;;;5.35;4.35;;;22.50;99.90;;;;;;5072070;28;20202;-87
2021/09/25 10:01:43;;;;;;;6.43;4.55;;;22.60;99.90;;;;;;5072514;28;20218;-92
2021/09/25 10:04:11;;;;;;;6.63;4.55;;;22.60;99.90;;;;;;5072209;28;20226;-92
2021/09/25 10:06:38;;;;;;;4.30;3.50;;;23.40;99.90;;;;;;5072448;28;20206;-91
2021/09/25 10:09:07;;;;;;;6.07;3.95;;;24.00;99.90;;;;;;5071546;28;20259;-86
2021/09/25 10:11:37;;;;;;;5.95;4.45;;;24.20;99.90;;;;;;5072257;28;20232;-84
2021/09/25 10:14:05;;;;;;;4.28;3.50;;;24.20;99.90;;;;;;5072164;28;20205;-85
2021/09/25 10:16:32;;;;;;;6.10;3.30;;;24.70;99.90;;;;;;5071866;28;20561;-88
2021/09/25 10:19:03;;;;;;;7.07;3.97;;;25.00;99.90;;;;;;5072433;28;20203;-83
2021/09/25 10:21:34;;;;;;;4.13;3.83;;;24.40;99.90;;;;;;5071998;28;20209;-86
2021/09/25 10:24:06;;;;;;;4.45;3.75;;;24.30;99.90;;;;;;5072476;28;20240;-85
2021/09/25 10:26:33;;;;;;;6.93;4.53;;;24.30;99.90;;;;;;5072099;28;20259;-84
2021/09/25 10:29:04;;;;;;;5.68;4.10;;;23.90;99.90;;;;;;5072191;28;20210;-80
2021/09/25 10:31:31;;;;;;;5.38;4.25;;;23.20;99.90;;;;;;5072689;28;20202;-90
2021/09/25 10:34:09;;;;;;;5.78;4.13;;;23.70;99.90;;;;;;5072704;28;20301;-87
2021/09/25 10:36:48;;;;;;;8.50;4.35;;;24.20;99.90;;;;;;5071885;28;20218;-88
2021/09/25 10:39:17;;;;;;;5.03;3.78;;;24.10;99.90;;;;;;5071733;28;20327;-90
2021/09/25 10:41:45;;;;;;;5.50;4.15;;;24.40;99.90;;;;;;5071956;28;20267;-90
2021/09/25 10:44:26;;;;;;;6.75;4.32;;;24.80;99.90;;;;;;5071077;28;20226;-86
2021/09/25 10:47:04;;;;;;;4.80;4.30;;;24.90;99.90;;;;;;5067434;28;20209;-90
2021/09/25 10:49:41;;;;;;;8.52;3.58;;;24.80;99.90;;;;;;5072716;28;20214;-89
2021/09/25 10:52:08;;;;;;;9.38;4.53;;;25.00;99.90;;;;;;5071261;28;20209;-80
2021/09/25 10:54:35;;;;;;;4.63;4.13;;;25.00;99.90;;;;;;5072352;28;20198;-91
2021/09/25 10:57:07;;;;;;;6.03;4.20;;;24.90;99.90;;;;;;5071416;28;20205;-84
2021/09/25 10:59:35;;;;;;;10.05;5.75;;;24.90;99.90;;;;;;5071272;28;20697;-86
2021/09/25 11:02:02;;;;;;;4.90;4.13;;;24.80;99.90;;;;;;5071470;28;20218;-87
2021/09/25 11:04:34;;;;;;;4.82;4.28;;;24.60;99.90;;;;;;5077523;28;20229;-89
2021/09/25 11:07:03;;;;;;;4.82;3.75;;;24.80;99.90;;;;;;5072416;28;20292;-75
2021/09/25 11:09:33;;;;;;;6.03;4.35;;;24.80;99.90;;;;;;5057879;28;20221;-83
2021/09/25 11:12:07;;;;;;;4.32;3.90;;;25.00;99.90;;;;;;5072362;28;20210;-89
2021/09/25 11:14:41;;;;;;;5.15;4.03;;;25.00;99.90;;;;;;5070334;28;20275;-88
2021/09/25 11:17:24;;;;;;;6.43;4.03;;;25.00;99.90;;;;;;5070937;28;20213;-81
2021/09/25 11:19:56;;;;;;;6.45;4.63;;;25.10;99.90;;;;;;5070759;28;20248;-88
2021/09/25 11:22:30;;;;;;;8.93;4.55;;;25.00;99.90;;;;;;5070924;28;20271;-85
2021/09/25 11:24:59;;;;;;;4.57;4.13;;;24.80;99.90;;;;;;5071208;28;20255;-84
2021/09/25 11:27:28;;;;;;;13.88;5.10;;;24.60;99.90;;;;;;5071131;28;20214;-86
2021/09/25 11:30:16;;;;;;;10.02;4.07;;;24.80;99.90;;;;;;5070750;28;20210;-84
2021/09/25 11:32:46;;;;;;;5.38;3.97;;;25.00;99.90;;;;;;5070985;28;20213;-84
2021/09/25 11:35:17;;;;;;;8.50;4.57;;;25.20;99.90;;;;;;5070947;28;20628;-86
2021/09/25 11:37:50;;;;;;;3.92;3.42;;;25.30;99.90;;;;;;5071304;28;20248;-79
2021/09/25 11:40:18;;;;;;;5.07;3.85;;;25.30;99.90;;;;;;5071215;28;20198;-83
2021/09/25 11:42:45;;;;;;;4.80;3.38;;;25.40;99.90;;;;;;5071684;28;20739;-84
2021/09/25 11:45:17;;;;;;;5.80;3.25;;;25.50;99.90;;;;;;5071293;28;20237;-81
2021/09/25 11:47:47;;;;;;;8.68;3.80;;;25.60;99.90;;;;;;5071693;28;20209;-80
2021/09/25 11:50:18;;;;;;;5.82;3.63;;;25.70;99.90;;;;;;5075165;28;20259;-84
2021/09/25 11:52:48;;;;;;;8.20;3.55;;;25.90;99.90;;;;;;5075768;28;20201;-84
2021/09/25 11:55:16;;;;;;;4.50;3.70;;;26.00;99.90;;;;;;5076699;28;20210;-85
2021/09/25 11:57:51;;;;;;;6.82;3.83;;;26.00;99.90;;;;;;5076338;28;20198;-87
2021/09/25 12:00:23;;;;;;;7.88;4.43;;;26.20;99.90;;;;;;5075373;28;20578;-82
2021/09/25 12:02:52;;;;;;;7.97;3.28;;;26.40;99.90;;;;;;5074646;28;20210;-81
2021/09/25 12:05:31;;;;;;;4.47;3.92;;;26.40;99.90;;;;;;5074183;28;20724;-80
2021/09/25 12:08:00;;;;;;;5.95;3.78;;;26.50;99.90;;;;;;5062112;28;20202;-83
2021/09/25 12:10:29;;;;;;;7.68;4.30;;;26.50;99.90;;;;;;5074210;28;20267;-82
2021/09/25 12:12:59;;;;;;;8.90;6.57;;;26.40;99.90;;;;;;5074151;28;20210;-82
2021/09/25 12:15:31;;;;;;;6.38;4.68;;;26.20;99.90;;;;;;5074079;28;20297;-80
2021/09/25 12:18:09;;;;;;;6.95;4.32;;;26.30;99.90;;;;;;5074030;28;20665;-83
2021/09/25 12:20:36;;;;;;;5.75;4.20;;;26.30;99.90;;;;;;5074372;28;20209;-81
2021/09/25 12:23:06;;;;;;;7.85;4.00;;;26.30;99.90;;;;;;5073430;28;20743;-76
2021/09/25 12:25:35;;;;;;;7.47;4.85;;;26.40;99.90;;;;;;5073065;28;20626;-78
2021/09/25 12:28:02;;;;;;;5.97;4.45;;;26.30;99.90;;;;;;5073642;28;20212;-81
2021/09/25 12:30:31;;;;;;;6.40;4.00;;;26.60;99.90;;;;;;5074433;28;20738;-80
2021/09/25 12:33:01;;;;;;;7.80;4.13;;;26.90;99.90;;;;;;5074766;28;20664;-81
2021/09/25 12:35:29;;;;;;;3.92;3.53;;;26.80;99.90;;;;;;5073982;28;20206;-85
2021/09/25 12:37:56;;;;;;;5.57;3.92;;;26.60;99.90;;;;;;5074225;28;20247;-84
2021/09/25 12:40:24;;;;;;;4.47;3.80;;;26.80;99.90;;;;;;5073154;28;20210;-83
2021/09/25 12:42:52;;;;;;;4.30;3.60;;;26.80;99.90;;;;;;5073907;28;20206;-86
2021/09/25 12:45:19;;;;;;;5.10;4.60;;;26.80;99.90;;;;;;5073051;28;22699;-82
2021/09/25 12:47:48;;;;;;;9.50;4.68;;;26.80;99.90;;;;;;5073488;28;20666;-81
2021/09/25 12:50:21;;;;;;;17.75;12.10;;;26.70;99.90;;;;;;5073405;28;20234;-86
2021/09/25 12:52:56;;;;;;;6.25;4.20;;;26.80;99.90;;;;;;5073401;28;20198;-85
2021/09/25 12:55:23;;;;;;;4.38;3.55;;;27.00;99.90;;;;;;5072720;28;20209;-88